createdAt,value
2019-01-02T00:00:40.103Z,88.20
2019-01-02T00:01:40.073Z,88.77
2019-01-02T00:02:40.047Z,88.39
2019-01-02T00:03:40.022Z,87.73
2019-01-02T00:04:39.998Z,88.29
2019-01-02T00:05:39.973Z,88.10
2019-01-02T00:06:39.948Z,88.29
2019-01-02T00:07:39.921Z,88.29
2019-01-02T00:08:39.901Z,88.29
2019-01-02T00:09:39.877Z,88.77
2019-01-02T00:10:39.856Z,88.29
2019-01-02T00:11:39.825Z,89.06
2019-01-02T00:12:39.797Z,88.58
2019-01-02T00:13:39.774Z,89.15
2019-01-02T00:14:39.750Z,88.58
2019-01-02T00:15:39.725Z,88.29
2019-01-02T00:16:39.704Z,88.77
2019-01-02T00:17:39.678Z,88.68
2019-01-02T00:18:39.652Z,89.34
2019-01-02T00:19:39.631Z,88.58
2019-01-02T00:20:39.600Z,89.72
2019-01-02T00:21:39.573Z,89.34
2019-01-02T00:22:39.554Z,89.53
2019-01-02T00:23:39.527Z,89.62
2019-01-02T00:24:39.499Z,89.72
2019-01-02T00:25:39.480Z,89.34
2019-01-02T00:26:39.453Z,89.06
2019-01-02T00:27:39.446Z,89.25
2019-01-02T00:28:39.401Z,89.15
2019-01-02T00:29:39.373Z,88.58
2019-01-02T00:30:39.350Z,88.77
2019-01-02T00:31:39.324Z,88.77
2019-01-02T00:32:39.309Z,88.87
2019-01-02T00:33:39.276Z,88.77
2019-01-02T00:34:39.250Z,88.77
2019-01-02T00:35:39.226Z,89.15
2019-01-02T00:36:39.203Z,90.29
2019-01-02T00:37:39.168Z,89.72
2019-01-02T00:38:39.146Z,91.52
2019-01-02T00:39:39.120Z,91.24
2019-01-02T00:40:39.095Z,91.42
2019-01-02T00:41:39.089Z,91.80
2019-01-02T00:42:39.053Z,91.71
2019-01-02T00:43:39.022Z,92.28
2019-01-02T00:44:38.996Z,91.71
2019-01-02T00:45:38.981Z,91.61
2019-01-02T00:46:38.950Z,91.14
2019-01-02T00:47:38.922Z,91.24
2019-01-02T00:48:38.895Z,91.24
2019-01-02T00:49:38.873Z,91.33
2019-01-02T00:50:38.847Z,91.24
2019-01-02T00:51:38.820Z,90.67
2019-01-02T00:52:38.800Z,90.19
2019-01-02T00:53:38.772Z,89.25
2019-01-02T00:54:38.750Z,88.87
2019-01-02T00:55:38.721Z,88.10
2019-01-02T00:56:38.696Z,88.58
2019-01-02T00:57:38.670Z,88.29
2019-01-02T00:58:38.645Z,88.20
2019-01-02T00:59:38.619Z,88.68
2019-01-02T01:00:38.595Z,88.68
2019-01-02T01:01:38.568Z,88.87
2019-01-02T01:02:38.545Z,88.68
2019-01-02T01:03:38.534Z,88.10
2019-01-02T01:04:38.492Z,88.39
2019-01-02T01:05:38.471Z,87.92
2019-01-02T01:06:38.444Z,88.29
2019-01-02T01:07:38.425Z,88.20
2019-01-02T01:08:38.395Z,88.87
2019-01-02T01:09:38.368Z,87.82
2019-01-02T01:10:38.345Z,88.96
2019-01-02T01:11:38.317Z,89.15
2019-01-02T01:12:38.295Z,88.68
2019-01-02T01:13:38.273Z,90.00
2019-01-02T01:14:38.244Z,90.48
2019-01-02T01:15:38.218Z,90.76
2019-01-02T01:16:38.198Z,91.24
2019-01-02T01:17:38.168Z,90.67
2019-01-02T01:18:38.144Z,90.57
2019-01-02T01:19:38.118Z,91.33
2019-01-02T01:20:38.102Z,90.76
2019-01-02T01:21:38.068Z,90.19
2019-01-02T01:22:38.046Z,90.67
2019-01-02T01:23:38.018Z,90.48
2019-01-02T01:24:37.997Z,90.48
2019-01-02T01:25:37.966Z,89.81
2019-01-02T01:26:37.951Z,90.76
2019-01-02T01:27:37.916Z,91.05
2019-01-02T01:28:37.894Z,91.61
2019-01-02T01:29:37.877Z,91.71
2019-01-02T01:30:37.842Z,91.80
2019-01-02T01:31:37.820Z,91.33
2019-01-02T01:32:37.800Z,91.61
2019-01-02T01:33:37.767Z,91.99
2019-01-02T01:34:37.747Z,92.28
2019-01-02T01:35:37.718Z,91.14
2019-01-02T01:36:37.692Z,91.52
2019-01-02T01:37:37.667Z,92.66
2019-01-02T01:38:37.645Z,91.99
2019-01-02T01:39:37.626Z,92.09
2019-01-02T01:40:37.593Z,92.57
2019-01-02T01:41:37.571Z,91.71
2019-01-02T01:42:37.562Z,91.61
2019-01-02T01:43:37.518Z,91.90
2019-01-02T01:44:37.492Z,91.42
2019-01-02T01:45:37.466Z,91.99
2019-01-02T01:46:37.440Z,91.61
2019-01-02T01:47:37.424Z,91.52
2019-01-02T01:48:37.391Z,91.52
2019-01-02T01:49:37.368Z,91.80
2019-01-02T01:50:37.351Z,91.33
2019-01-02T01:51:37.317Z,91.71
2019-01-02T01:52:37.292Z,91.42
2019-01-02T01:53:37.275Z,90.57
2019-01-02T01:54:37.240Z,91.42
2019-01-02T01:55:37.218Z,90.76
2019-01-02T01:56:37.193Z,91.80
2019-01-02T01:57:37.178Z,91.71
2019-01-02T01:58:37.146Z,91.61
2019-01-02T01:59:37.125Z,92.47
2019-01-02T02:00:37.094Z,93.13
2019-01-02T02:01:37.069Z,93.80
2019-01-02T02:02:37.048Z,94.93
2019-01-02T02:03:37.023Z,95.88
2019-01-02T02:04:36.992Z,98.16
2019-01-02T02:05:36.967Z,99.39
2019-01-02T02:06:36.946Z,99.49
2019-01-02T02:07:36.922Z,99.99
2019-01-02T02:08:36.893Z,99.99
2019-01-02T02:09:36.868Z,99.99
2019-01-02T02:10:36.844Z,99.99
2019-01-02T02:11:36.816Z,99.99
2019-01-02T02:12:36.791Z,99.99
2019-01-02T02:13:36.767Z,99.99
2019-01-02T02:14:36.742Z,99.99
2019-01-02T02:15:36.714Z,99.99
2019-01-02T02:16:36.691Z,99.96
2019-01-02T02:17:36.667Z,99.49
2019-01-02T02:18:36.641Z,99.44
2019-01-02T02:19:36.615Z,99.68
2019-01-02T02:20:36.593Z,99.30
2019-01-02T02:21:36.568Z,99.20
2019-01-02T02:22:36.540Z,99.30
2019-01-02T02:23:36.515Z,98.54
2019-01-02T02:24:36.490Z,99.01
2019-01-02T02:25:36.467Z,99.39
2019-01-02T02:26:36.438Z,99.58
2019-01-02T02:27:36.416Z,99.58
2019-01-02T02:28:36.393Z,99.77
2019-01-02T02:29:36.362Z,99.99
2019-01-02T02:30:36.336Z,99.96
2019-01-02T02:31:36.315Z,99.99
2019-01-02T02:32:36.285Z,99.99
2019-01-02T02:33:36.261Z,99.99
2019-01-02T02:34:36.241Z,99.99
2019-01-02T02:35:36.209Z,99.99
2019-01-02T02:36:36.194Z,99.99
2019-01-02T02:37:36.160Z,99.99
2019-01-02T02:38:36.136Z,99.99
2019-01-02T02:39:36.110Z,99.99
2019-01-02T02:40:36.083Z,99.99
2019-01-02T02:41:36.059Z,99.99
2019-01-02T02:42:36.039Z,99.99
2019-01-02T02:43:36.011Z,99.99
2019-01-02T02:44:35.982Z,99.99
2019-01-02T02:45:35.967Z,99.99
2019-01-02T02:46:35.933Z,99.99
2019-01-02T02:47:35.950Z,99.99
2019-01-02T02:48:35.896Z,99.99
2019-01-02T02:49:35.858Z,99.99
2019-01-02T02:50:35.832Z,99.99
2019-01-02T02:51:35.809Z,99.99
2019-01-02T02:52:35.783Z,99.99
2019-01-02T02:53:35.757Z,99.99
2019-01-02T02:54:35.730Z,99.99
2019-01-02T02:55:35.710Z,99.99
2019-01-02T02:56:35.680Z,99.99
2019-01-02T02:57:35.662Z,99.99
2019-01-02T02:58:35.630Z,99.99
2019-01-02T02:59:35.607Z,99.99
2019-01-02T03:00:35.581Z,99.99
2019-01-02T03:01:35.556Z,99.99
2019-01-02T03:02:35.530Z,99.99
2019-01-02T03:03:35.505Z,99.99
2019-01-02T03:04:35.479Z,99.99
2019-01-02T03:05:35.462Z,99.99
2019-01-02T03:06:35.439Z,99.99
2019-01-02T03:07:35.411Z,99.99
2019-01-02T03:08:35.381Z,99.99
2019-01-02T03:09:35.360Z,99.99
2019-01-02T03:10:35.329Z,99.99
2019-01-02T03:11:35.309Z,99.99
2019-01-02T03:12:35.280Z,99.99
2019-01-02T03:13:35.265Z,99.99
2019-01-02T03:14:35.235Z,99.99
2019-01-02T03:15:35.204Z,99.99
2019-01-02T03:16:35.176Z,99.99
2019-01-02T03:17:35.152Z,99.99
2019-01-02T03:18:35.132Z,99.99
2019-01-02T03:19:35.102Z,99.99
2019-01-02T03:20:35.083Z,99.99
2019-01-02T03:21:35.060Z,99.99
2019-01-02T03:22:35.026Z,99.99
2019-01-02T03:23:35.000Z,99.99
2019-01-02T03:24:34.978Z,99.99
2019-01-02T03:25:34.951Z,99.99
2019-01-02T03:26:34.925Z,99.99
2019-01-02T03:27:34.899Z,99.99
2019-01-02T03:28:34.885Z,99.99
2019-01-02T03:29:34.849Z,99.99
2019-01-02T03:30:34.827Z,99.99
2019-01-02T03:31:34.811Z,99.99
2019-01-02T03:32:34.775Z,99.99
2019-01-02T03:33:34.761Z,99.99
2019-01-02T03:34:34.728Z,99.99
2019-01-02T03:35:34.698Z,99.99
2019-01-02T03:36:34.676Z,99.99
2019-01-02T03:37:34.655Z,99.99
2019-01-02T03:38:34.624Z,99.99
2019-01-02T03:39:34.599Z,99.99
2019-01-02T03:40:34.576Z,99.99
2019-01-02T03:41:34.564Z,99.99
2019-01-02T03:42:34.529Z,99.99
2019-01-02T03:43:34.502Z,99.99
2019-01-02T03:44:34.476Z,99.99
2019-01-02T03:45:34.450Z,99.99
2019-01-02T03:46:34.423Z,99.99
2019-01-02T03:47:34.398Z,99.99
2019-01-02T03:48:34.373Z,99.99
2019-01-02T03:49:34.346Z,99.99
2019-01-02T03:50:34.324Z,99.99
2019-01-02T03:51:34.297Z,99.99
2019-01-02T03:52:34.278Z,99.99
2019-01-02T03:53:34.247Z,99.99
2019-01-02T03:54:34.228Z,99.99
2019-01-02T03:55:34.224Z,99.99
2019-01-02T03:56:34.174Z,99.99
2019-01-02T03:57:34.154Z,99.99
2019-01-02T03:58:34.131Z,99.99
2019-01-02T03:59:34.099Z,99.99
2019-01-02T04:00:34.074Z,99.99
2019-01-02T04:01:34.048Z,99.99
2019-01-02T04:02:34.042Z,99.99
2019-01-02T04:03:33.998Z,99.99
2019-01-02T04:04:33.973Z,99.99
2019-01-02T04:05:33.947Z,99.99
2019-01-02T04:06:33.923Z,99.99
2019-01-02T04:07:33.896Z,99.99
2019-01-02T04:08:33.875Z,99.99
2019-01-02T04:09:33.845Z,99.99
2019-01-02T04:10:33.834Z,99.99
2019-01-02T04:11:33.796Z,99.99
2019-01-02T04:12:33.784Z,99.99
2019-01-02T04:13:33.752Z,99.99
2019-01-02T04:14:33.727Z,99.99
2019-01-02T04:15:33.697Z,99.99
2019-01-02T04:16:33.678Z,99.99
2019-01-02T04:17:33.647Z,99.99
2019-01-02T04:18:33.628Z,99.99
2019-01-02T04:19:33.598Z,99.99
2019-01-02T04:20:33.588Z,99.99
2019-01-02T04:21:33.553Z,99.99
2019-01-02T04:22:33.524Z,99.99
2019-01-02T04:23:33.496Z,99.99
2019-01-02T04:24:33.472Z,99.99
2019-01-02T04:25:33.448Z,99.99
2019-01-02T04:26:33.423Z,99.99
2019-01-02T04:27:33.400Z,99.99
2019-01-02T04:28:33.372Z,99.99
2019-01-02T04:29:33.348Z,99.99
2019-01-02T04:30:33.318Z,99.91
2019-01-02T04:31:33.295Z,99.99
2019-01-02T04:32:33.271Z,99.06
2019-01-02T04:33:33.248Z,99.16
2019-01-02T04:34:33.224Z,98.87
2019-01-02T04:35:33.198Z,99.35
2019-01-02T04:36:33.174Z,99.06
2019-01-02T04:37:33.148Z,99.16
2019-01-02T04:38:33.123Z,99.35
2019-01-02T04:39:33.099Z,99.06
2019-01-02T04:40:33.074Z,98.59
2019-01-02T04:41:33.054Z,99.06
2019-01-02T04:42:33.023Z,99.54
2019-01-02T04:43:32.998Z,99.44
2019-01-02T04:44:32.976Z,99.63
2019-01-02T04:45:32.953Z,99.06
2019-01-02T04:46:32.924Z,99.44
2019-01-02T04:47:32.900Z,99.82
2019-01-02T04:48:32.877Z,99.91
2019-01-02T04:49:32.853Z,99.44
2019-01-02T04:50:32.833Z,99.44
2019-01-02T04:51:32.803Z,99.26
2019-01-02T04:52:32.777Z,99.06
2019-01-02T04:53:32.750Z,98.11
2019-01-02T04:54:32.725Z,97.45
2019-01-02T04:55:32.701Z,98.21
2019-01-02T04:56:32.674Z,98.40
2019-01-02T04:57:32.652Z,97.26
2019-01-02T04:58:32.628Z,97.36
2019-01-02T04:59:32.601Z,97.07
2019-01-02T05:00:32.580Z,97.64
2019-01-02T05:01:32.554Z,96.41
2019-01-02T05:02:32.528Z,96.12
2019-01-02T05:03:32.504Z,96.03
2019-01-02T05:04:32.479Z,96.03
2019-01-02T05:05:32.455Z,96.03
2019-01-02T05:06:32.432Z,96.03
2019-01-02T05:07:32.406Z,96.41
2019-01-02T05:08:32.381Z,97.07
2019-01-02T05:09:32.948Z,96.78
2019-01-02T05:10:32.330Z,96.69
2019-01-02T05:11:32.305Z,96.31
2019-01-02T05:12:32.280Z,95.93
2019-01-02T05:13:32.262Z,96.22
2019-01-02T05:14:32.234Z,95.84
2019-01-02T05:15:32.208Z,95.74
2019-01-02T05:16:32.183Z,95.93
2019-01-02T05:17:32.159Z,95.36
2019-01-02T05:18:32.131Z,95.55
2019-01-02T05:19:32.106Z,94.79
2019-01-02T05:20:32.081Z,95.17
2019-01-02T05:21:32.056Z,95.27
2019-01-02T05:22:32.032Z,95.17
2019-01-02T05:23:32.004Z,94.23
2019-01-02T05:24:31.981Z,95.46
2019-01-02T05:25:31.956Z,94.70
2019-01-02T05:26:31.935Z,95.27
2019-01-02T05:27:31.906Z,95.17
2019-01-02T05:28:31.881Z,96.03
2019-01-02T05:29:31.859Z,96.03
2019-01-02T05:30:31.942Z,95.46
2019-01-02T05:31:31.810Z,96.41
2019-01-02T05:32:31.786Z,96.22
2019-01-02T05:33:31.764Z,95.27
2019-01-02T05:34:31.735Z,95.17
2019-01-02T05:35:31.709Z,94.98
2019-01-02T05:36:31.685Z,94.89
2019-01-02T05:37:31.659Z,94.51
2019-01-02T05:38:31.635Z,94.79
2019-01-02T05:39:31.608Z,94.89
2019-01-02T05:40:31.583Z,94.13
2019-01-02T05:41:31.560Z,93.37
2019-01-02T05:42:31.534Z,93.84
2019-01-02T05:43:31.508Z,92.80
2019-01-02T05:44:31.484Z,92.90
2019-01-02T05:45:31.462Z,93.27
2019-01-02T05:46:31.435Z,93.75
2019-01-02T05:47:31.409Z,93.56
2019-01-02T05:48:31.388Z,92.23
2019-01-02T05:49:31.374Z,92.33
2019-01-02T05:50:31.336Z,92.42
2019-01-02T05:51:31.311Z,92.42
2019-01-02T05:52:31.290Z,91.66
2019-01-02T05:53:31.271Z,91.66
2019-01-02T05:54:31.237Z,91.94
2019-01-02T05:55:31.209Z,92.33
2019-01-02T05:56:31.193Z,92.52
2019-01-02T05:57:31.161Z,91.66
2019-01-02T05:58:31.137Z,91.47
2019-01-02T05:59:31.110Z,91.56
2019-01-02T06:00:31.089Z,91.66
2019-01-02T06:01:31.066Z,91.47
2019-01-02T06:02:31.038Z,91.56
2019-01-02T06:03:31.014Z,91.47
2019-01-02T06:04:30.989Z,91.38
2019-01-02T06:05:30.964Z,92.47
2019-01-02T06:06:30.939Z,91.90
2019-01-02T06:07:30.912Z,91.94
2019-01-02T06:08:30.888Z,92.42
2019-01-02T06:09:30.863Z,92.09
2019-01-02T06:10:30.839Z,92.47
2019-01-02T06:11:30.813Z,92.38
2019-01-02T06:12:30.787Z,92.57
2019-01-02T06:13:30.761Z,93.13
2019-01-02T06:14:30.739Z,92.94
2019-01-02T06:15:30.722Z,93.61
2019-01-02T06:16:30.688Z,93.89
2019-01-02T06:17:30.664Z,93.89
2019-01-02T06:18:30.638Z,93.41
2019-01-02T06:19:30.614Z,94.08
2019-01-02T06:20:30.592Z,93.70
2019-01-02T06:21:30.566Z,93.80
2019-01-02T06:22:30.553Z,93.99
2019-01-02T06:23:30.514Z,93.70
2019-01-02T06:24:30.488Z,94.27
2019-01-02T06:25:30.466Z,94.27
2019-01-02T06:26:30.452Z,94.74
2019-01-02T06:27:30.414Z,94.84
2019-01-02T06:28:30.391Z,94.84
2019-01-02T06:29:30.365Z,94.74
2019-01-02T06:30:30.344Z,94.74
2019-01-02T06:31:30.353Z,94.74
2019-01-02T06:32:30.291Z,95.22
2019-01-02T06:33:30.266Z,94.93
2019-01-02T06:34:30.241Z,95.69
2019-01-02T06:35:30.224Z,95.98
2019-01-02T06:36:30.191Z,95.69
2019-01-02T06:37:30.166Z,96.36
2019-01-02T06:38:30.140Z,96.26
2019-01-02T06:39:30.115Z,96.55
2019-01-02T06:40:30.091Z,96.83
2019-01-02T06:41:30.065Z,97.02
2019-01-02T06:42:30.041Z,97.97
2019-01-02T06:43:30.018Z,98.25
2019-01-02T06:44:29.992Z,98.25
2019-01-02T06:45:29.970Z,98.44
2019-01-02T06:46:29.942Z,98.54
2019-01-02T06:47:29.919Z,98.44
2019-01-02T06:48:29.892Z,99.49
2019-01-02T06:49:29.868Z,99.01
2019-01-02T06:50:29.845Z,99.39
2019-01-02T06:51:29.818Z,99.20
2019-01-02T06:52:29.792Z,98.82
2019-01-02T06:53:29.781Z,98.63
2019-01-02T06:54:29.745Z,98.44
2019-01-02T06:55:29.718Z,98.16
2019-01-02T06:56:29.694Z,98.07
2019-01-02T06:57:29.670Z,98.63
2019-01-02T06:58:29.642Z,98.35
2019-01-02T06:59:29.626Z,98.73
2019-01-02T07:00:29.592Z,97.97
2019-01-02T07:01:29.566Z,98.25
2019-01-02T07:02:29.545Z,99.49
2019-01-02T07:03:29.525Z,98.73
2019-01-02T07:04:29.491Z,98.92
2019-01-02T07:05:29.466Z,99.20
2019-01-02T07:06:29.448Z,98.82
2019-01-02T07:07:31.304Z,98.54
2019-01-02T07:08:29.393Z,99.01
2019-01-02T07:09:29.368Z,99.01
2019-01-02T07:10:29.343Z,98.92
2019-01-02T07:11:29.318Z,99.39
2019-01-02T07:12:29.293Z,99.01
2019-01-02T07:13:29.269Z,98.73
2019-01-02T07:14:29.248Z,99.01
2019-01-02T07:15:29.221Z,99.30
2019-01-02T07:16:29.199Z,99.20
2019-01-02T07:17:29.167Z,98.92
2019-01-02T07:18:29.142Z,99.68
2019-01-02T07:19:29.117Z,99.39
2019-01-02T07:20:29.092Z,99.99
2019-01-02T07:21:29.067Z,99.96
2019-01-02T07:22:29.042Z,99.99
2019-01-02T07:23:29.018Z,99.99
2019-01-02T07:24:28.999Z,99.99
2019-01-02T07:25:28.969Z,99.99
2019-01-02T07:26:28.945Z,99.99
2019-01-02T07:27:28.917Z,99.99
2019-01-02T07:28:28.897Z,99.99
2019-01-02T07:29:28.869Z,99.99
2019-01-02T07:30:28.852Z,99.99
2019-01-02T07:31:28.816Z,99.99
2019-01-02T07:32:28.796Z,99.99
2019-01-02T07:33:28.768Z,99.99
2019-01-02T07:34:28.744Z,99.99
2019-01-02T07:35:28.721Z,99.99
2019-01-02T07:36:28.694Z,99.99
2019-01-02T07:37:28.698Z,99.99
2019-01-02T07:38:28.643Z,99.99
2019-01-02T07:39:28.618Z,99.99
2019-01-02T07:40:28.596Z,99.99
2019-01-02T07:41:28.577Z,99.99
2019-01-02T07:42:28.541Z,99.99
2019-01-02T07:43:28.520Z,99.99
2019-01-02T07:44:28.490Z,99.99
2019-01-02T07:45:28.467Z,99.99
2019-01-02T07:46:28.447Z,99.99
2019-01-02T07:47:28.417Z,99.99
2019-01-02T07:48:28.396Z,99.99
2019-01-02T07:49:28.369Z,99.99
2019-01-02T07:50:28.344Z,99.99
2019-01-02T07:51:28.314Z,99.99
2019-01-02T07:52:28.292Z,99.99
2019-01-02T07:53:28.267Z,99.99
2019-01-02T07:54:28.240Z,99.99
2019-01-02T07:55:28.214Z,99.99
2019-01-02T07:56:28.191Z,99.99
2019-01-02T07:57:28.164Z,99.99
2019-01-02T07:58:28.147Z,99.99
2019-01-02T07:59:28.112Z,99.99
2019-01-02T08:00:28.091Z,99.99
2019-01-02T08:01:28.064Z,99.99
2019-01-02T08:02:28.041Z,99.99
2019-01-02T08:03:28.024Z,99.99
2019-01-02T08:04:27.995Z,99.99
2019-01-02T08:05:27.968Z,99.99
2019-01-02T08:06:27.951Z,99.99
2019-01-02T08:07:27.912Z,99.99
2019-01-02T08:08:27.887Z,99.99
2019-01-02T08:09:27.861Z,99.99
2019-01-02T08:10:27.843Z,99.99
2019-01-02T08:11:27.813Z,99.99
2019-01-02T08:12:27.788Z,99.99
2019-01-02T08:13:27.762Z,99.99
2019-01-02T08:14:27.741Z,99.99
2019-01-02T08:15:27.711Z,99.99
2019-01-02T08:16:29.123Z,99.99
2019-01-02T08:17:27.660Z,99.30
2019-01-02T08:18:27.639Z,99.99
2019-01-02T08:19:27.610Z,99.68
2019-01-02T08:20:27.586Z,99.20
2019-01-02T08:21:27.561Z,99.99
2019-01-02T08:22:27.538Z,99.99
2019-01-02T08:23:27.512Z,99.99
2019-01-02T08:24:27.497Z,99.68
2019-01-02T08:25:27.459Z,99.68
2019-01-02T08:26:27.440Z,99.30
2019-01-02T08:27:27.416Z,99.39
2019-01-02T08:28:27.400Z,99.39
2019-01-02T08:29:27.365Z,99.99
2019-01-02T08:30:27.337Z,99.68
2019-01-02T08:31:27.311Z,99.68
2019-01-02T08:32:27.284Z,99.39
2019-01-02T08:33:27.260Z,99.30
2019-01-02T08:34:27.236Z,99.20
2019-01-02T08:35:27.223Z,99.30
2019-01-02T08:36:27.184Z,99.30
2019-01-02T08:37:27.158Z,99.39
2019-01-02T08:38:27.136Z,98.25
2019-01-02T08:39:27.107Z,98.73
2019-01-02T08:40:27.082Z,99.11
2019-01-02T08:41:27.058Z,99.30
2019-01-02T08:42:27.036Z,99.01
2019-01-02T08:43:27.007Z,99.20
2019-01-02T08:44:26.988Z,99.30
2019-01-02T08:45:26.960Z,99.30
2019-01-02T08:46:26.934Z,99.30
2019-01-02T08:47:26.910Z,99.39
2019-01-02T08:48:26.884Z,98.25
2019-01-02T08:49:26.866Z,98.63
2019-01-02T08:50:26.836Z,98.54
2019-01-02T08:51:26.807Z,98.35
2019-01-02T08:52:26.784Z,98.44
2019-01-02T08:53:26.758Z,97.97
2019-01-02T08:54:26.736Z,97.40
2019-01-02T08:55:26.708Z,97.40
2019-01-02T08:56:26.681Z,97.97
2019-01-02T08:57:26.659Z,97.78
2019-01-02T08:58:26.637Z,97.50
2019-01-02T08:59:26.612Z,98.07
2019-01-02T09:00:26.584Z,98.25
2019-01-02T09:01:26.563Z,98.54
2019-01-02T09:02:26.536Z,98.07
2019-01-02T09:03:26.508Z,97.78
2019-01-02T09:04:26.486Z,98.25
2019-01-02T09:05:26.461Z,98.92
2019-01-02T09:06:26.433Z,98.82
2019-01-02T09:07:26.408Z,97.97
2019-01-02T09:08:26.386Z,98.54
2019-01-02T09:09:26.360Z,97.97
2019-01-02T09:10:26.334Z,98.63
2019-01-02T09:11:26.309Z,97.31
2019-01-02T09:12:26.284Z,97.21
2019-01-02T09:13:26.261Z,96.55
2019-01-02T09:14:26.234Z,96.83
2019-01-02T09:15:26.209Z,97.21
2019-01-02T09:16:26.186Z,97.31
2019-01-02T09:17:26.162Z,97.12
2019-01-02T09:18:26.136Z,97.40
2019-01-02T09:19:26.113Z,98.07
2019-01-02T09:20:26.088Z,97.12
2019-01-02T09:21:26.063Z,97.31
2019-01-02T09:22:26.035Z,96.64
2019-01-02T09:23:26.009Z,96.83
2019-01-02T09:24:25.983Z,96.83
2019-01-02T09:25:25.963Z,97.02
2019-01-02T09:26:25.938Z,96.64
2019-01-02T09:27:25.911Z,96.26
2019-01-02T09:28:25.890Z,95.79
2019-01-02T09:29:25.861Z,95.31
2019-01-02T09:30:25.837Z,95.31
2019-01-02T09:31:25.811Z,95.88
2019-01-02T09:32:25.785Z,96.64
2019-01-02T09:33:25.764Z,96.55
2019-01-02T09:34:25.735Z,95.41
2019-01-02T09:35:25.709Z,95.03
2019-01-02T09:36:25.688Z,95.12
2019-01-02T09:37:25.661Z,94.56
2019-01-02T09:38:25.641Z,95.31
2019-01-02T09:39:25.615Z,96.08
2019-01-02T09:40:25.586Z,95.41
2019-01-02T09:41:25.571Z,95.31
2019-01-02T09:42:25.537Z,94.84
2019-01-02T09:43:25.519Z,94.65
2019-01-02T09:44:25.486Z,94.32
2019-01-02T09:45:25.462Z,94.08
2019-01-02T09:46:25.531Z,95.07
2019-01-02T09:47:25.461Z,95.22
2019-01-02T09:48:25.415Z,94.60
2019-01-02T09:49:25.361Z,94.93
2019-01-02T09:50:25.352Z,94.13
2019-01-02T09:51:25.310Z,93.75
2019-01-02T09:52:25.288Z,93.94
2019-01-02T09:53:25.261Z,93.56
2019-01-02T09:54:25.249Z,93.75
2019-01-02T09:55:25.218Z,93.04
2019-01-02T09:56:25.197Z,93.18
2019-01-02T09:57:25.166Z,92.99
2019-01-02T09:58:25.139Z,93.18
2019-01-02T09:59:25.117Z,93.56
2019-01-02T10:00:25.091Z,93.84
2019-01-02T10:01:25.065Z,94.13
2019-01-02T10:02:25.043Z,93.84
2019-01-02T10:03:25.018Z,94.03
2019-01-02T10:04:24.993Z,93.84
2019-01-02T10:05:24.967Z,93.94
2019-01-02T10:06:24.946Z,92.61
2019-01-02T10:07:24.919Z,92.61
2019-01-02T10:08:24.899Z,92.33
2019-01-02T10:09:24.865Z,92.61
2019-01-02T10:10:24.844Z,92.52
2019-01-02T10:11:24.820Z,91.28
2019-01-02T10:12:24.789Z,90.81
2019-01-02T10:13:24.765Z,90.33
2019-01-02T10:14:24.739Z,91.28
2019-01-02T10:15:24.716Z,91.66
2019-01-02T10:16:24.704Z,90.14
2019-01-02T10:17:24.667Z,90.24
2019-01-02T10:18:24.643Z,90.14
2019-01-02T10:19:24.617Z,90.14
2019-01-02T10:20:24.594Z,89.76
2019-01-02T10:21:24.575Z,89.20
2019-01-02T10:22:24.545Z,89.67
2019-01-02T10:23:24.532Z,89.67
2019-01-02T10:24:24.494Z,89.20
2019-01-02T10:25:24.470Z,89.95
2019-01-02T10:26:24.453Z,89.86
2019-01-02T10:27:24.419Z,90.14
2019-01-02T10:28:24.406Z,90.24
2019-01-02T10:29:24.370Z,89.67
2019-01-02T10:30:24.350Z,89.58
2019-01-02T10:31:24.319Z,90.14
2019-01-02T10:32:24.311Z,90.33
2019-01-02T10:33:24.275Z,88.91
2019-01-02T10:34:24.249Z,87.39
2019-01-02T10:35:24.228Z,86.91
2019-01-02T10:36:24.198Z,86.16
2019-01-02T10:37:24.171Z,85.78
2019-01-02T10:38:24.147Z,86.30
2019-01-02T10:39:24.123Z,86.54
2019-01-02T10:40:24.104Z,86.49
2019-01-02T10:41:24.090Z,86.44
2019-01-02T10:42:24.067Z,85.78
2019-01-02T10:43:24.024Z,86.16
2019-01-02T10:44:24.000Z,85.78
2019-01-02T10:45:23.987Z,86.35
2019-01-02T10:46:23.957Z,86.16
2019-01-02T10:47:23.928Z,85.68
2019-01-02T10:48:23.902Z,84.83
2019-01-02T10:49:23.886Z,84.07
2019-01-02T10:50:23.858Z,84.26
2019-01-02T10:51:23.835Z,85.44
2019-01-02T10:52:23.809Z,84.07
2019-01-02T10:53:23.781Z,84.36
2019-01-02T10:54:23.755Z,83.88
2019-01-02T10:55:23.728Z,84.07
2019-01-02T10:56:23.719Z,84.87
2019-01-02T10:57:23.690Z,83.97
2019-01-02T10:58:23.656Z,82.84
2019-01-02T10:59:23.630Z,82.84
2019-01-02T11:00:23.611Z,83.92
2019-01-02T11:01:23.588Z,83.64
2019-01-02T11:02:23.558Z,82.31
2019-01-02T11:03:23.550Z,81.07
2019-01-02T11:04:23.513Z,81.45
2019-01-02T11:05:23.480Z,80.69
2019-01-02T11:06:23.457Z,80.79
2019-01-02T11:07:23.486Z,80.69
2019-01-02T11:08:23.407Z,80.41
2019-01-02T11:09:23.388Z,81.65
2019-01-02T11:10:23.358Z,82.17
2019-01-02T11:11:23.334Z,83.07
2019-01-02T11:12:23.309Z,82.27
2019-01-02T11:13:23.294Z,82.03
2019-01-02T11:14:23.264Z,80.32
2019-01-02T11:15:23.239Z,78.23
2019-01-02T11:16:23.211Z,78.03
2019-01-02T11:17:23.198Z,76.61
2019-01-02T11:18:23.162Z,77.18
2019-01-02T11:19:23.145Z,76.71
2019-01-02T11:20:23.118Z,75.81
2019-01-02T11:21:23.090Z,76.20
2019-01-02T11:22:23.064Z,76.99
2019-01-02T11:23:23.045Z,76.20
2019-01-02T11:24:23.019Z,77.90
2019-01-02T11:25:22.990Z,76.71
2019-01-02T11:26:22.966Z,76.32
2019-01-02T11:27:22.961Z,75.24
2019-01-02T11:28:22.916Z,74.90
2019-01-02T11:29:22.892Z,74.52
2019-01-02T11:30:22.896Z,74.52
2019-01-02T11:31:22.843Z,74.52
2019-01-02T11:32:22.823Z,73.48
2019-01-02T11:33:22.798Z,73.86
2019-01-02T11:34:22.771Z,74.11
2019-01-02T11:35:22.746Z,73.54
2019-01-02T11:36:22.723Z,73.82
2019-01-02T11:37:22.713Z,74.20
2019-01-02T11:38:22.677Z,75.19
2019-01-02T11:39:22.646Z,73.63
2019-01-02T11:40:22.622Z,72.68
2019-01-02T11:41:22.596Z,71.77
2019-01-02T11:42:22.575Z,71.77
2019-01-02T11:43:22.550Z,71.96
2019-01-02T11:44:22.524Z,72.97
2019-01-02T11:45:22.503Z,73.10
2019-01-02T11:46:22.488Z,73.44
2019-01-02T11:47:22.451Z,72.88
2019-01-02T11:48:22.424Z,73.00
2019-01-02T11:49:22.400Z,74.01
2019-01-02T11:50:22.373Z,72.91
2019-01-02T11:51:22.349Z,71.83
2019-01-02T11:52:22.324Z,71.26
2019-01-02T11:53:22.302Z,69.55
2019-01-02T11:54:22.288Z,70.21
2019-01-02T11:55:22.255Z,70.59
2019-01-02T11:56:22.228Z,69.65
2019-01-02T11:57:22.200Z,68.79
2019-01-02T11:58:22.177Z,67.75
2019-01-02T11:59:22.150Z,67.65
2019-01-02T12:00:22.128Z,67.56
2019-01-02T12:01:22.103Z,67.65
2019-01-02T12:02:22.079Z,68.89
2019-01-02T12:03:22.054Z,68.44
2019-01-02T12:04:22.038Z,68.60
2019-01-02T12:05:22.003Z,67.79
2019-01-02T12:06:21.988Z,68.32
2019-01-02T12:07:21.953Z,67.65
2019-01-02T12:08:21.930Z,67.46
2019-01-02T12:09:21.905Z,67.75
2019-01-02T12:10:21.880Z,67.46
2019-01-02T12:11:21.854Z,67.94
2019-01-02T12:12:21.830Z,67.50
2019-01-02T12:13:21.814Z,66.89
2019-01-02T12:14:21.793Z,67.02
2019-01-02T12:15:21.755Z,66.36
2019-01-02T12:16:21.738Z,67.69
2019-01-02T12:17:21.711Z,67.88
2019-01-02T12:18:21.682Z,66.27
2019-01-02T12:19:21.663Z,66.04
2019-01-02T12:20:21.634Z,66.42
2019-01-02T12:21:21.607Z,66.33
2019-01-02T12:22:21.598Z,65.28
2019-01-02T12:23:21.564Z,65.95
2019-01-02T12:24:21.536Z,65.28
2019-01-02T12:25:21.508Z,65.47
2019-01-02T12:26:21.485Z,66.27
2019-01-02T12:27:21.457Z,65.66
2019-01-02T12:28:21.438Z,66.46
2019-01-02T12:29:21.416Z,65.28
2019-01-02T12:30:21.395Z,65.60
2019-01-02T12:31:21.362Z,64.94
2019-01-02T12:32:21.338Z,65.28
2019-01-02T12:33:21.310Z,64.14
2019-01-02T12:34:21.290Z,63.39
2019-01-02T12:35:21.262Z,64.14
2019-01-02T12:36:21.239Z,64.43
2019-01-02T12:37:21.217Z,63.39
2019-01-02T12:38:21.196Z,64.33
2019-01-02T12:39:21.161Z,64.33
2019-01-02T12:40:21.140Z,64.33
2019-01-02T12:41:21.117Z,64.90
2019-01-02T12:42:21.092Z,64.52
2019-01-02T12:43:21.062Z,63.70
2019-01-02T12:44:21.043Z,63.57
2019-01-02T12:45:21.034Z,63.76
2019-01-02T12:46:20.989Z,63.95
2019-01-02T12:47:20.997Z,63.67
2019-01-02T12:48:20.947Z,63.60
2019-01-02T12:49:20.913Z,63.60
2019-01-02T12:50:20.890Z,63.70
2019-01-02T12:51:20.866Z,64.37
2019-01-02T12:52:20.841Z,63.70